Time;durP1;ratioP1;P1;durP2;ratioP2;P2;SDS_P1;SDS_P2;PMS_P1;PMS_P2;Temp;Humidity;BMP_temperature;BMP_pressure;BME280_temperature;BME280_humidity;BME280_pressure;Samples;Min_cycle;Max_cycle;Signal;HPM_P1;HPM_P2
2023/06/01 00:01:40;;;;;;;1.53;1.43;;;13.30;69.80;13.20;100895.00;;;;5009369;27;119074;-68
2023/06/01 00:04:07;;;;;;;2.00;1.87;;;13.20;70.00;13.20;100896.00;;;;5006521;27;88133;-67
2023/06/01 00:06:33;;;;;;;1.90;1.70;;;13.20;70.40;13.10;100885.00;;;;5013367;27;88450;-68
2023/06/01 00:08:58;;;;;;;2.40;1.63;;;13.10;70.70;13.00;100886.00;;;;5012846;27;106743;-68
2023/06/01 00:11:27;;;;;;;1.50;1.40;;;13.10;71.00;13.00;100888.00;;;;5002892;27;117391;-68
2023/06/01 00:13:53;;;;;;;2.37;1.40;;;13.00;71.50;13.00;100888.00;;;;5010296;27;87791;-68
2023/06/01 00:16:19;;;;;;;2.07;1.77;;;13.00;71.90;13.00;100881.00;;;;5010284;27;87160;-67
2023/06/01 00:18:45;;;;;;;2.60;1.60;;;13.00;72.10;12.90;100879.00;;;;5009808;27;92010;-68
2023/06/01 00:21:11;;;;;;;1.00;1.00;;;13.00;72.50;12.90;100878.00;;;;5010793;27;117562;-68
2023/06/01 00:23:40;;;;;;;1.77;1.43;;;12.90;72.70;12.90;100879.00;;;;5009237;27;94636;-68
2023/06/01 00:26:07;;;;;;;1.70;1.60;;;12.90;73.20;12.90;100881.00;;;;5011969;27;87738;-68
2023/06/01 00:28:33;;;;;;;1.70;1.50;;;12.90;73.60;12.80;100885.00;;;;5013055;27;88944;-68
2023/06/01 00:30:59;;;;;;;2.47;1.50;;;12.90;73.90;12.80;100887.00;;;;5012914;27;109285;-68
2023/06/01 00:33:25;;;;;;;1.97;1.87;;;12.80;74.20;12.70;100882.00;;;;5011700;27;109642;-68
2023/06/01 00:35:51;;;;;;;1.67;1.57;;;12.80;74.70;12.70;100887.00;;;;4990300;27;107821;-68
2023/06/01 00:38:17;;;;;;;2.27;1.67;;;12.70;75.20;12.60;100886.00;;;;4991101;27;88277;-68
2023/06/01 00:40:49;;;;;;;3.13;2.23;;;12.60;75.70;12.50;100879.00;;;;5007205;27;117703;-68
2023/06/01 00:43:16;;;;;;;2.53;1.70;;;12.60;76.30;12.40;100885.00;;;;5005791;27;87618;-68
2023/06/01 00:45:42;;;;;;;1.63;1.43;;;12.50;76.80;12.40;100880.00;;;;5008815;27;99122;-69
2023/06/01 00:48:08;;;;;;;2.03;1.80;;;12.50;77.20;12.40;100888.00;;;;5006942;27;118812;-68
2023/06/01 00:50:34;;;;;;;4.53;1.77;;;12.40;77.50;12.30;100880.00;;;;5007660;27;119369;-68
2023/06/01 00:53:02;;;;;;;1.20;1.10;;;12.40;77.80;12.30;100879.00;;;;4986430;27;87936;-67
2023/06/01 00:55:28;;;;;;;3.63;1.93;;;12.40;78.20;12.20;100873.00;;;;4998008;27;88056;-67
2023/06/01 00:57:55;;;;;;;2.17;2.07;;;12.30;78.80;12.20;100877.00;;;;5012508;27;88448;-68
2023/06/01 01:00:22;;;;;;;3.23;1.73;;;12.30;79.20;12.20;100869.00;;;;5014285;27;117614;-68
2023/06/01 01:02:48;;;;;;;1.30;1.20;;;12.20;79.40;12.20;100867.00;;;;5011260;27;87940;-68
2023/06/01 01:05:16;;;;;;;2.50;1.73;;;12.20;79.80;12.10;100865.00;;;;5006701;27;99212;-68
2023/06/01 01:08:31;;;;;;;5.67;1.47;;;12.20;80.30;12.00;100868.00;;;;5014646;27;88698;-68
2023/06/01 01:11:12;;;;;;;1.43;1.33;;;12.10;80.60;12.10;100867.00;;;;4977966;27;104241;-67
2023/06/01 01:13:50;;;;;;;2.97;2.20;;;12.10;80.80;12.10;100861.00;;;;4998649;27;88911;-68
2023/06/01 01:16:40;;;;;;;2.43;1.80;;;12.10;81.00;12.00;100857.00;;;;4990386;27;99794;-68
2023/06/01 01:19:53;;;;;;;2.57;2.13;;;12.00;81.40;12.00;100856.00;;;;5008749;27;87975;-69
2023/06/01 01:22:38;;;;;;;3.33;1.80;;;12.00;81.80;11.90;100855.00;;;;5012911;27;87744;-67
2023/06/01 01:25:52;;;;;;;2.03;1.90;;;12.00;82.20;11.80;100854.00;;;;5012817;27;87863;-67
2023/06/01 01:28:41;;;;;;;1.40;1.30;;;11.90;82.80;11.70;100851.00;;;;5010505;27;87938;-67
2023/06/01 01:31:12;;;;;;;1.47;1.33;;;11.80;84.20;11.60;100861.00;;;;5010211;27;88748;-67
2023/06/01 01:33:39;;;;;;;1.87;1.67;;;11.70;85.20;11.50;100853.00;;;;5012727;27;88950;-67
2023/06/01 01:36:07;;;;;;;2.50;2.30;;;11.60;86.00;11.50;100847.00;;;;5009349;27;104238;-68
2023/06/01 01:38:36;;;;;;;1.93;1.60;;;11.60;86.70;11.50;100852.00;;;;4997505;27;87962;-67
2023/06/01 01:41:03;;;;;;;1.93;1.63;;;11.50;87.10;11.50;100859.00;;;;5008757;27;117148;-67
2023/06/01 01:43:30;;;;;;;2.63;1.97;;;11.50;87.40;11.50;100864.00;;;;5012979;27;88792;-67
2023/06/01 01:46:13;;;;;;;1.60;1.50;;;11.60;87.80;11.50;100855.00;;;;4999434;27;87648;-68
2023/06/01 01:49:09;;;;;;;2.97;2.70;;;11.60;88.20;11.50;100858.00;;;;4994600;27;100577;-67
2023/06/01 01:52:09;;;;;;;2.60;1.87;;;11.60;88.50;11.50;100871.00;;;;4991601;27;87837;-67
2023/06/01 01:54:43;;;;;;;1.60;1.50;;;11.60;88.70;11.50;100873.00;;;;5005412;27;87722;-68
2023/06/01 01:57:14;;;;;;;2.20;1.77;;;11.50;89.00;11.50;100868.00;;;;5006602;27;87738;-67
2023/06/01 01:59:42;;;;;;;2.63;2.03;;;11.50;89.50;11.50;100877.00;;;;4996099;27;87134;-67
2023/06/01 02:02:08;;;;;;;2.30;2.10;;;11.50;90.00;11.50;100862.00;;;;5005670;27;88172;-67
2023/06/01 02:04:40;;;;;;;2.07;1.77;;;11.10;90.10;11.40;100860.00;;;;5006199;27;105790;-67
2023/06/01 02:07:06;;;;;;;1.80;1.70;;;11.50;90.40;11.40;100850.00;;;;5007478;27;88732;-67
2023/06/01 02:09:31;;;;;;;3.77;2.40;;;11.40;90.50;11.30;100859.00;;;;5007779;27;87669;-67
2023/06/01 02:11:57;;;;;;;2.10;1.77;;;11.40;90.80;11.30;100853.00;;;;4988042;27;117781;-67
2023/06/01 02:14:22;;;;;;;2.23;2.07;;;11.30;91.00;11.30;100853.00;;;;5010262;27;115593;-66
2023/06/01 02:16:48;;;;;;;3.27;1.80;;;11.30;91.30;11.30;100856.00;;;;5002869;27;109832;-67
2023/06/01 02:19:15;;;;;;;1.60;1.50;;;11.30;91.90;11.20;100848.00;;;;5012518;27;108553;-67
2023/06/01 02:21:42;;;;;;;3.10;1.90;;;11.30;92.00;11.20;100839.00;;;;5004337;27;88064;-67
2023/06/01 02:24:08;;;;;;;3.73;2.07;;;11.20;92.20;11.20;100843.00;;;;5003933;27;87948;-67
2023/06/01 02:26:34;;;;;;;2.10;1.63;;;11.20;92.30;11.20;100844.00;;;;5005696;27;87730;-67
2023/06/01 02:29:07;;;;;;;2.00;1.50;;;11.20;92.40;11.20;100829.00;;;;5013389;27;100802;-67
2023/06/01 02:31:34;;;;;;;2.10;1.90;;;11.20;92.50;11.20;100828.00;;;;4999603;27;89578;-67
2023/06/01 02:34:01;;;;;;;3.07;1.70;;;11.20;92.50;11.20;100822.00;;;;5011092;27;89351;-67
2023/06/01 02:36:28;;;;;;;1.20;1.10;;;11.20;92.60;11.20;100824.00;;;;5003729;27;87776;-67
2023/06/01 02:38:58;;;;;;;2.80;1.87;;;11.20;92.70;11.20;100831.00;;;;5008288;27;87938;-67
2023/06/01 02:41:25;;;;;;;4.63;2.10;;;11.20;92.70;11.20;100834.00;;;;5004177;27;106451;-68
2023/06/01 02:43:50;;;;;;;1.60;1.50;;;11.20;92.80;11.20;100837.00;;;;5009423;27;88002;-67
2023/06/01 02:46:19;;;;;;;2.50;1.87;;;11.30;93.00;11.30;100838.00;;;;5002036;27;111041;-68
2023/06/01 02:48:46;;;;;;;4.27;1.50;;;11.30;93.10;11.30;100830.00;;;;5009354;27;87129;-67
2023/06/01 02:51:11;;;;;;;2.20;2.00;;;11.30;93.20;11.30;100838.00;;;;4997164;27;89026;-67
2023/06/01 02:53:40;;;;;;;1.93;1.73;;;11.30;93.30;11.30;100838.00;;;;4982656;28;87964;-67
2023/06/01 02:56:06;;;;;;;1.67;1.50;;;11.30;93.60;11.30;100839.00;;;;4977405;28;88753;-67
2023/06/01 02:58:31;;;;;;;2.80;1.83;;;11.30;93.70;11.20;100826.00;;;;4989931;28;97383;-67
2023/06/01 03:01:00;;;;;;;1.77;1.60;;;11.20;93.90;11.20;100824.00;;;;4987710;28;117754;-67
2023/06/01 03:03:26;;;;;;;1.97;1.60;;;11.30;94.10;11.20;100829.00;;;;4986581;28;87964;-67
2023/06/01 03:05:53;;;;;;;2.40;1.60;;;11.20;94.20;11.20;100825.00;;;;4986596;28;102577;-67
2023/06/01 03:08:19;;;;;;;1.73;1.63;;;11.20;94.30;11.20;100819.00;;;;4989109;28;99851;-67
2023/06/01 03:10:45;;;;;;;2.00;1.80;;;10.90;94.30;11.10;100816.00;;;;4990089;28;88345;-68
2023/06/01 03:13:11;;;;;;;1.10;1.00;;;11.20;94.50;11.10;100824.00;;;;4990884;28;98839;-68
2023/06/01 03:15:37;;;;;;;2.90;1.97;;;11.20;94.60;11.20;100823.00;;;;4992910;28;88074;-68
2023/06/01 03:18:05;;;;;;;5.50;1.77;;;11.20;94.60;11.20;100816.00;;;;4988901;28;87877;-68
2023/06/01 03:20:31;;;;;;;2.50;1.43;;;11.20;94.70;11.20;100822.00;;;;4986286;28;90368;-68
2023/06/01 03:22:57;;;;;;;1.40;1.30;;;11.20;94.70;11.20;100828.00;;;;4994433;28;88837;-69
2023/06/01 03:25:24;;;;;;;3.20;2.13;;;11.20;94.70;11.20;100838.00;;;;4994851;28;108928;-68
2023/06/01 03:27:50;;;;;;;1.90;1.70;;;11.20;94.70;11.20;100831.00;;;;4988814;28;87511;-67
2023/06/01 03:30:16;;;;;;;5.43;1.70;;;11.20;94.80;11.20;100823.00;;;;4995544;28;92280;-67
2023/06/01 03:32:44;;;;;;;1.50;1.40;;;11.30;94.80;11.30;100824.00;;;;4988909;28;101814;-68
2023/06/01 03:35:11;;;;;;;1.70;1.60;;;11.30;94.80;11.30;100822.00;;;;4987886;28;88078;-68
2023/06/01 03:37:40;;;;;;;4.00;2.23;;;11.30;95.00;11.30;100817.00;;;;4990837;28;99618;-68
2023/06/01 03:40:13;;;;;;;9.07;2.07;;;11.30;94.90;11.40;100831.00;;;;4978474;28;88023;-68
2023/06/01 03:42:44;;;;;;;2.00;1.80;;;11.40;95.00;11.40;100825.00;;;;4989655;28;87990;-67
2023/06/01 03:45:15;;;;;;;3.03;1.93;;;11.40;95.00;11.40;100825.00;;;;4990066;28;93352;-68
2023/06/01 03:47:41;;;;;;;3.67;1.37;;;11.40;95.00;11.40;100828.00;;;;4988915;28;87903;-67
2023/06/01 03:50:09;;;;;;;1.43;1.20;;;11.50;95.10;11.40;100823.00;;;;4986439;28;94922;-67
2023/06/01 03:52:35;;;;;;;1.70;1.13;;;11.40;95.00;11.50;100825.00;;;;4999381;27;87733;-68
2023/06/01 03:55:08;;;;;;;2.10;1.43;;;11.50;95.10;11.50;100827.00;;;;4992021;27;87945;-68
2023/06/01 03:57:36;;;;;;;1.67;1.40;;;11.50;95.10;11.50;100828.00;;;;5007217;27;87660;-68
2023/06/01 04:00:18;;;;;;;1.10;1.03;;;11.50;95.10;11.60;100820.00;;;;5007808;27;109712;-68
2023/06/01 04:02:54;;;;;;;2.63;1.73;;;11.50;95.10;11.60;100823.00;;;;5010268;27;88645;-68
2023/06/01 04:05:21;;;;;;;1.93;1.70;;;11.60;95.20;11.60;100824.00;;;;5006928;27;88209;-68
2023/06/01 04:07:53;;;;;;;4.80;1.43;;;11.60;95.30;11.70;100820.00;;;;5008832;27;87910;-68
2023/06/01 04:10:19;;;;;;;2.13;1.73;;;11.70;95.50;11.70;100818.00;;;;5009138;27;89938;-68
2023/06/01 04:12:47;;;;;;;3.30;1.87;;;11.70;95.60;11.70;100813.00;;;;5006252;27;88582;-68
2023/06/01 04:15:14;;;;;;;1.40;1.17;;;11.70;95.70;11.80;100817.00;;;;5011144;27;87610;-68
2023/06/01 04:17:42;;;;;;;3.13;1.57;;;11.80;95.70;11.90;100812.00;;;;5007925;27;98502;-68
2023/06/01 04:20:17;;;;;;;2.60;1.17;;;11.80;95.70;12.00;100825.00;;;;5011427;27;106384;-68
2023/06/01 04:22:45;;;;;;;4.33;1.57;;;11.90;95.80;12.00;100822.00;;;;5012448;27;87771;-68
2023/06/01 04:25:17;;;;;;;2.17;1.60;;;12.00;95.80;12.10;100821.00;;;;5010319;27;87888;-68
2023/06/01 04:27:46;;;;;;;1.87;1.40;;;12.10;95.70;12.20;100830.00;;;;5014304;27;86990;-68
2023/06/01 04:30:13;;;;;;;2.07;1.40;;;12.10;95.60;12.30;100836.00;;;;5009149;27;88058;-68
2023/06/01 04:32:40;;;;;;;0.90;0.90;;;12.20;95.60;12.40;100835.00;;;;5011953;27;88050;-69
2023/06/01 04:35:07;;;;;;;1.97;1.07;;;12.30;95.50;12.50;100836.00;;;;5011694;27;89093;-69
2023/06/01 04:37:41;;;;;;;1.67;1.20;;;12.40;95.40;12.60;100837.00;;;;5013460;27;87750;-69
2023/06/01 04:40:09;;;;;;;1.40;1.30;;;12.50;95.50;12.70;100837.00;;;;5012933;27;88056;-67
2023/06/01 04:42:48;;;;;;;1.33;1.23;;;12.60;95.40;12.70;100832.00;;;;5014065;27;88178;-66
2023/06/01 04:45:16;;;;;;;1.30;1.23;;;12.70;95.20;12.80;100839.00;;;;5008463;27;88089;-67
2023/06/01 04:47:44;;;;;;;2.03;1.40;;;12.70;95.00;12.90;100846.00;;;;5009377;27;87979;-68
2023/06/01 04:50:11;;;;;;;1.37;1.13;;;12.80;95.00;13.00;100848.00;;;;5008051;27;87943;-67
2023/06/01 04:52:39;;;;;;;2.27;1.23;;;12.90;94.90;13.00;100843.00;;;;5007288;27;97057;-67
2023/06/01 04:55:07;;;;;;;6.23;1.70;;;13.00;94.80;13.10;100839.00;;;;5004114;27;87783;-67
2023/06/01 04:57:33;;;;;;;1.90;1.50;;;13.10;94.70;13.30;100846.00;;;;5008129;27;88765;-69
2023/06/01 05:00:00;;;;;;;1.77;1.20;;;13.20;94.60;13.40;100855.00;;;;5003140;27;102332;-69
2023/06/01 05:02:28;;;;;;;6.57;1.60;;;13.30;94.40;13.60;100844.00;;;;5015698;27;87651;-69
2023/06/01 05:04:55;;;;;;;1.73;1.17;;;13.50;94.30;13.70;100834.00;;;;5007730;27;94250;-68
2023/06/01 05:07:21;;;;;;;1.00;1.00;;;13.60;94.10;13.90;100836.00;;;;5016299;27;87932;-68
2023/06/01 05:09:47;;;;;;;1.83;1.50;;;13.80;93.90;14.10;100839.00;;;;5012903;27;88071;-68
2023/06/01 05:12:13;;;;;;;1.80;1.33;;;13.90;93.60;14.20;100833.00;;;;5015804;27;88794;-67
2023/06/01 05:14:39;;;;;;;1.70;1.23;;;14.10;93.40;14.30;100833.00;;;;5011633;27;101912;-68
2023/06/01 05:17:05;;;;;;;2.13;1.30;;;14.20;93.10;14.50;100821.00;;;;5010956;27;87078;-68
2023/06/01 05:19:31;;;;;;;3.93;2.17;;;14.40;92.90;14.70;100829.00;;;;5007273;27;118109;-67
2023/06/01 05:21:56;;;;;;;2.20;1.43;;;14.50;92.70;14.90;100834.00;;;;5004767;27;115967;-67
2023/06/01 05:24:22;;;;;;;2.28;1.55;;;14.70;92.40;15.10;100827.00;;;;5005600;27;108937;-67
2023/06/01 05:26:48;;;;;;;1.65;1.40;;;14.90;92.10;15.30;100833.00;;;;5004298;27;92152;-67
2023/06/01 05:29:13;;;;;;;2.13;1.48;;;15.10;91.90;15.50;100824.00;;;;5007814;27;117745;-69
2023/06/01 05:31:40;;;;;;;1.92;1.00;;;15.40;91.60;15.80;100827.00;;;;5008218;27;118174;-69
2023/06/01 05:34:06;;;;;;;1.33;1.23;;;15.50;91.10;16.00;100822.00;;;;5009088;27;87724;-67
2023/06/01 05:36:31;;;;;;;2.10;1.70;;;15.80;90.80;16.20;100823.00;;;;5011622;27;108287;-66
2023/06/01 05:38:58;;;;;;;1.35;1.17;;;16.00;90.30;16.40;100826.00;;;;5006491;27;88765;-69
2023/06/01 05:41:25;;;;;;;0.95;0.93;;;16.20;90.10;16.60;100828.00;;;;5012782;27;88468;-67
2023/06/01 05:43:51;;;;;;;2.80;2.05;;;16.40;90.10;16.80;100829.00;;;;5007687;27;88195;-69
2023/06/01 05:46:17;;;;;;;1.25;1.05;;;16.60;88.80;17.00;100828.00;;;;5012717;27;87739;-68
2023/06/01 05:48:42;;;;;;;2.40;1.48;;;16.80;88.10;17.20;100834.00;;;;5007071;27;117591;-68
2023/06/01 05:51:08;;;;;;;1.88;1.20;;;17.00;87.50;17.40;100828.00;;;;5011316;27;118332;-68
2023/06/01 05:53:34;;;;;;;1.33;1.15;;;17.20;86.80;17.60;100831.00;;;;5019321;27;109927;-67
2023/06/01 05:55:59;;;;;;;4.38;1.70;;;17.40;86.00;17.80;100823.00;;;;5016160;27;108614;-69
2023/06/01 05:58:25;;;;;;;4.97;2.05;;;17.60;85.30;18.00;100834.00;;;;5010671;27;116356;-67
2023/06/01 06:00:51;;;;;;;3.75;1.63;;;17.80;84.60;18.10;100827.00;;;;5010384;27;88718;-67
2023/06/01 06:03:17;;;;;;;3.10;1.58;;;18.00;83.70;18.20;100828.00;;;;5010933;27;87807;-69
2023/06/01 06:05:42;;;;;;;2.63;0.90;;;18.10;83.00;18.30;100827.00;;;;5007387;27;104682;-69
2023/06/01 06:08:10;;;;;;;1.75;1.27;;;18.20;82.30;18.40;100828.00;;;;5006088;27;116876;-68
2023/06/01 06:10:35;;;;;;;2.95;1.40;;;18.30;81.90;18.50;100831.00;;;;5008982;27;88986;-68
2023/06/01 06:13:01;;;;;;;6.60;2.20;;;18.40;81.30;18.60;100835.00;;;;5010618;27;100235;-68
2023/06/01 06:15:27;;;;;;;2.15;1.83;;;18.50;80.80;18.70;100824.00;;;;5005352;27;109299;-67
2023/06/01 06:17:52;;;;;;;1.30;1.20;;;18.60;80.50;18.90;100822.00;;;;5005679;27;116830;-68
2023/06/01 06:20:21;;;;;;;2.92;1.50;;;18.80;80.10;19.10;100827.00;;;;5004572;27;115143;-66
2023/06/01 06:22:51;;;;;;;4.78;2.17;;;18.90;79.30;19.30;100837.00;;;;5007967;27;87757;-67
2023/06/01 06:25:16;;;;;;;1.20;1.10;;;19.10;79.00;19.50;100834.00;;;;5010375;27;88278;-69
2023/06/01 06:27:42;;;;;;;1.60;1.10;;;19.30;78.60;19.70;100827.00;;;;5005467;27;118029;-67
2023/06/01 06:30:08;;;;;;;1.33;1.23;;;19.50;77.40;19.70;100817.00;;;;5009280;27;116433;-67
2023/06/01 06:32:34;;;;;;;2.63;1.58;;;19.60;76.50;19.80;100822.00;;;;5003416;27;89479;-68
2023/06/01 06:35:00;;;;;;;3.08;1.73;;;19.70;76.10;20.00;100826.00;;;;5011074;27;88024;-69
2023/06/01 06:37:28;;;;;;;2.45;1.58;;;19.80;75.50;20.20;100819.00;;;;5008115;27;109299;-68
2023/06/01 06:39:53;;;;;;;1.85;1.38;;;20.00;75.10;20.30;100822.00;;;;5007478;27;105704;-68
2023/06/01 06:42:19;;;;;;;1.40;1.25;;;20.20;74.60;20.50;100825.00;;;;5006420;27;111055;-69
2023/06/01 06:44:45;;;;;;;1.95;1.83;;;20.30;73.80;20.70;100829.00;;;;5008091;27;87702;-68
2023/06/01 06:47:14;;;;;;;1.75;1.17;;;20.50;73.00;20.80;100814.00;;;;5009061;27;88777;-67
2023/06/01 06:49:40;;;;;;;1.27;1.15;;;20.60;72.20;21.00;100814.00;;;;5008477;27;88640;-68
2023/06/01 06:52:06;;;;;;;2.75;2.03;;;20.80;71.30;21.10;100823.00;;;;4995113;27;87959;-67
2023/06/01 06:54:31;;;;;;;1.48;1.38;;;20.90;70.30;21.20;100821.00;;;;4965211;28;108327;-67
2023/06/01 06:56:57;;;;;;;2.80;1.33;;;21.00;70.10;21.30;100820.00;;;;4995487;27;88077;-67
2023/06/01 06:59:23;;;;;;;1.45;1.00;;;21.10;69.60;21.40;100821.00;;;;4998108;28;112049;-68
2023/06/01 07:01:48;;;;;;;1.58;1.38;;;21.30;68.70;21.60;100815.00;;;;4990449;27;102075;-67
2023/06/01 07:04:14;;;;;;;1.40;1.15;;;21.40;68.10;21.70;100818.00;;;;4988184;27;108908;-67
2023/06/01 07:06:40;;;;;;;3.08;1.08;;;21.60;67.60;21.80;100826.00;;;;4987963;27;88928;-67
2023/06/01 07:09:06;;;;;;;1.80;0.98;;;21.60;66.80;21.90;100824.00;;;;4989414;27;88457;-68
2023/06/01 07:11:31;;;;;;;1.98;1.63;;;21.80;66.30;22.00;100822.00;;;;4985512;28;87584;-68
2023/06/01 07:13:57;;;;;;;1.23;1.13;;;21.80;65.10;22.00;100834.00;;;;4987442;27;107892;-68
2023/06/01 07:16:25;;;;;;;2.40;1.67;;;21.90;65.00;22.20;100825.00;;;;4990767;27;88150;-68
2023/06/01 07:18:51;;;;;;;2.97;2.08;;;22.00;64.50;22.20;100820.00;;;;4987153;27;88383;-69
2023/06/01 07:21:17;;;;;;;4.55;1.27;;;22.10;64.00;22.30;100825.00;;;;4985501;27;87950;-68
2023/06/01 07:23:46;;;;;;;2.47;1.67;;;22.20;63.80;22.40;100809.00;;;;4989607;28;87827;-69
2023/06/01 07:26:11;;;;;;;1.40;0.93;;;22.20;63.60;22.50;100811.00;;;;4984940;28;99815;-67
2023/06/01 07:28:37;;;;;;;1.90;1.70;;;22.30;62.90;22.60;100808.00;;;;4987715;27;119047;-67
2023/06/01 07:31:04;;;;;;;1.52;1.40;;;22.50;62.00;22.70;100807.00;;;;4988248;27;87984;-69
2023/06/01 07:33:31;;;;;;;3.65;1.10;;;22.50;61.80;22.80;100803.00;;;;4956853;28;88080;-67
2023/06/01 07:35:58;;;;;;;2.55;1.70;;;22.70;61.50;22.90;100797.00;;;;4982710;28;117055;-68
2023/06/01 07:38:24;;;;;;;0.82;0.82;;;22.70;61.10;23.00;100797.00;;;;4982789;28;87677;-68
2023/06/01 07:40:51;;;;;;;2.22;1.27;;;22.90;60.10;23.10;100794.00;;;;4993633;28;87800;-67
2023/06/01 07:43:17;;;;;;;2.05;1.15;;;23.00;59.60;23.20;100802.00;;;;4985094;28;99987;-69
2023/06/01 07:45:43;;;;;;;1.30;0.90;;;23.10;58.60;23.20;100804.00;;;;4987576;27;116654;-67
2023/06/01 07:48:08;;;;;;;3.00;1.65;;;23.10;57.30;23.20;100799.00;;;;4987525;28;117270;-67
2023/06/01 07:50:34;;;;;;;1.50;1.25;;;23.10;56.30;23.20;100799.00;;;;4984819;28;111278;-68
2023/06/01 07:53:00;;;;;;;2.47;1.63;;;23.10;55.60;23.10;100790.00;;;;5001782;27;87976;-69
2023/06/01 07:55:25;;;;;;;2.97;1.70;;;23.10;54.60;23.00;100782.00;;;;5004359;27;118076;-69
2023/06/01 07:57:55;;;;;;;3.28;1.25;;;23.00;52.10;22.90;100781.00;;;;5005860;27;117378;-69
2023/06/01 08:00:22;;;;;;;2.38;1.88;;;22.90;52.60;22.80;100789.00;;;;4987675;27;87672;-69
2023/06/01 08:02:47;;;;;;;1.55;1.25;;;22.80;52.90;22.80;100789.00;;;;5008624;27;88000;-68
2023/06/01 08:05:17;;;;;;;2.17;1.77;;;22.80;52.30;22.80;100789.00;;;;5001821;27;117679;-67
2023/06/01 08:07:44;;;;;;;2.05;1.05;;;22.70;52.70;22.90;100779.00;;;;5012295;27;88613;-68
2023/06/01 08:10:10;;;;;;;1.65;1.08;;;22.80;52.60;23.00;100790.00;;;;5009994;27;87798;-67
2023/06/01 08:12:36;;;;;;;2.33;0.80;;;22.90;52.00;23.10;100795.00;;;;5010000;27;87751;-67
2023/06/01 08:15:03;;;;;;;1.75;1.42;;;22.90;52.60;23.20;100798.00;;;;5007149;27;89238;-67
2023/06/01 08:17:29;;;;;;;3.55;1.23;;;23.00;52.60;23.20;100796.00;;;;5011061;27;89593;-67
2023/06/01 08:19:56;;;;;;;3.65;2.10;;;23.10;52.50;23.30;100793.00;;;;5012988;27;88170;-69
2023/06/01 08:22:23;;;;;;;3.88;1.60;;;23.20;52.20;23.60;100793.00;;;;5009380;27;88078;-67
2023/06/01 08:24:51;;;;;;;2.15;1.35;;;23.30;52.40;23.80;100788.00;;;;5005738;27;87671;-68
2023/06/01 08:27:27;;;;;;;3.10;1.77;;;23.60;52.00;24.10;100788.00;;;;5001227;27;87904;-68
2023/06/01 08:29:53;;;;;;;4.15;1.60;;;23.90;51.40;24.20;100785.00;;;;5006363;27;87902;-67
2023/06/01 08:32:19;;;;;;;2.47;1.63;;;24.00;50.60;24.20;100782.00;;;;5009030;27;109528;-67
2023/06/01 08:34:46;;;;;;;6.40;1.55;;;24.10;49.80;24.10;100783.00;;;;5013542;27;87931;-68
2023/06/01 08:37:13;;;;;;;3.70;1.55;;;24.10;49.50;23.90;100784.00;;;;5011146;27;88731;-69
2023/06/01 08:39:39;;;;;;;3.70;1.50;;;23.90;49.00;23.70;100779.00;;;;5013783;27;88647;-67
2023/06/01 08:42:28;;;;;;;2.47;1.83;;;23.70;49.70;23.80;100778.00;;;;5012875;27;87694;-68
2023/06/01 08:44:57;;;;;;;3.67;1.35;;;23.70;49.40;23.70;100773.00;;;;5016518;27;87996;-68
2023/06/01 08:47:28;;;;;;;2.35;1.35;;;23.60;49.40;23.60;100785.00;;;;5013765;27;87844;-69
2023/06/01 08:50:01;;;;;;;1.27;1.05;;;23.50;49.80;23.70;100780.00;;;;5013780;27;87914;-69
2023/06/01 08:52:31;;;;;;;3.13;1.85;;;23.50;50.00;23.90;100776.00;;;;5006412;27;87841;-68
2023/06/01 08:55:04;;;;;;;3.40;1.42;;;23.70;49.60;23.90;100770.00;;;;4996699;27;89978;-67
2023/06/01 08:57:31;;;;;;;2.50;1.58;;;23.80;48.80;23.90;100773.00;;;;5007515;27;88152;-68
2023/06/01 08:59:58;;;;;;;2.40;1.73;;;23.70;48.70;23.80;100774.00;;;;4992464;27;88367;-66
2023/06/01 09:02:25;;;;;;;3.38;2.00;;;23.70;48.30;23.70;100768.00;;;;5007646;27;88148;-68
2023/06/01 09:04:52;;;;;;;3.03;1.65;;;23.70;48.20;23.70;100769.00;;;;5008079;27;88890;-68
2023/06/01 09:07:18;;;;;;;3.65;2.70;;;23.60;48.00;23.70;100769.00;;;;5009350;27;89986;-68
2023/06/01 09:09:44;;;;;;;1.63;1.17;;;23.50;48.10;23.60;100766.00;;;;5005131;27;88035;-67
2023/06/01 09:12:31;;;;;;;2.40;1.88;;;23.50;48.00;23.60;100764.00;;;;5008181;27;87791;-67
2023/06/01 09:15:16;;;;;;;6.80;1.73;;;23.50;48.30;23.60;100761.00;;;;5006725;27;88076;-67
2023/06/01 09:17:50;;;;;;;2.47;1.40;;;23.50;47.30;23.70;100754.00;;;;4982300;27;89705;-67
2023/06/01 09:20:24;;;;;;;3.22;1.75;;;23.50;47.50;23.80;100758.00;;;;4986639;27;88074;-69
2023/06/01 09:22:50;;;;;;;2.20;1.40;;;23.60;47.50;23.90;100757.00;;;;5009402;27;87123;-68
2023/06/01 09:25:16;;;;;;;3.47;1.30;;;23.70;47.80;24.10;100760.00;;;;5011540;27;87879;-67
2023/06/01 09:27:52;;;;;;;2.90;1.70;;;23.80;47.30;24.10;100761.00;;;;5012664;27;87688;-67
2023/06/01 09:30:21;;;;;;;2.40;1.52;;;23.90;47.50;24.20;100755.00;;;;5004897;27;89059;-68
2023/06/01 09:32:50;;;;;;;1.42;1.20;;;23.90;47.50;24.40;100747.00;;;;5008616;27;87781;-66
2023/06/01 09:35:47;;;;;;;1.92;1.50;;;24.10;47.10;24.50;100756.00;;;;5006999;27;87825;-68
2023/06/01 09:38:29;;;;;;;2.65;1.90;;;24.30;46.60;24.60;100747.00;;;;4985240;27;90965;-67
2023/06/01 09:41:02;;;;;;;5.50;1.95;;;24.40;46.50;24.60;100747.00;;;;4986624;27;87900;-67
2023/06/01 09:43:30;;;;;;;5.40;1.25;;;24.40;45.80;24.60;100745.00;;;;5001904;27;89862;-69
2023/06/01 09:46:06;;;;;;;2.80;1.40;;;24.40;45.80;24.70;100747.00;;;;5005132;27;89119;-68
2023/06/01 09:48:32;;;;;;;3.13;1.70;;;24.40;46.30;24.70;100743.00;;;;4992154;27;87572;-68
2023/06/01 09:50:57;;;;;;;1.70;1.20;;;24.40;45.10;24.80;100739.00;;;;4993829;27;88089;-68
2023/06/01 09:53:23;;;;;;;5.55;1.55;;;24.50;45.80;24.90;100742.00;;;;5009873;27;108304;-68
2023/06/01 09:56:01;;;;;;;3.58;1.58;;;24.60;46.00;25.10;100735.00;;;;4988631;27;118793;-67
2023/06/01 09:58:27;;;;;;;2.10;1.38;;;24.80;46.30;25.20;100720.00;;;;4994587;27;88959;-67
2023/06/01 10:00:54;;;;;;;3.63;1.55;;;24.80;45.70;25.20;100737.00;;;;5000931;27;89003;-68
2023/06/01 10:03:26;;;;;;;5.13;2.10;;;24.90;45.60;25.40;100730.00;;;;5008184;27;88142;-69
2023/06/01 10:05:52;;;;;;;1.50;1.15;;;25.00;45.60;25.50;100732.00;;;;5008669;27;116879;-68
2023/06/01 10:08:19;;;;;;;2.80;1.25;;;25.20;44.90;25.50;100730.00;;;;4989106;27;88040;-68
2023/06/01 10:10:48;;;;;;;1.55;1.45;;;25.20;44.50;25.70;100718.00;;;;5006702;27;87790;-68
2023/06/01 10:13:14;;;;;;;2.85;1.63;;;25.30;45.00;25.90;100716.00;;;;4989853;27;88428;-69
2023/06/01 10:15:40;;;;;;;1.25;1.00;;;25.60;44.10;26.10;100727.00;;;;5006089;27;116943;-67
2023/06/01 10:18:06;;;;;;;1.90;1.48;;;25.60;43.50;26.10;100728.00;;;;5005535;27;88077;-68
2023/06/01 10:20:37;;;;;;;3.00;1.30;;;25.70;43.20;26.30;100727.00;;;;5005289;27;88895;-67
2023/06/01 10:23:04;;;;;;;1.63;1.35;;;25.80;43.40;26.40;100729.00;;;;5007023;27;87789;-67
2023/06/01 10:25:44;;;;;;;1.20;0.90;;;26.00;42.60;26.50;100717.00;;;;5003893;27;117847;-71
2023/06/01 10:28:12;;;;;;;1.75;1.40;;;26.10;42.40;26.70;100707.00;;;;5005268;27;88372;-69
2023/06/01 10:30:37;;;;;;;2.08;1.42;;;26.20;40.40;26.70;100711.00;;;;5005565;27;87907;-70
2023/06/01 10:33:03;;;;;;;2.80;1.33;;;26.20;40.30;26.80;100701.00;;;;4994018;27;108499;-69
2023/06/01 10:35:30;;;;;;;2.42;1.17;;;26.30;40.20;27.10;100699.00;;;;5009671;27;118101;-69
2023/06/01 10:38:12;;;;;;;1.58;1.02;;;26.50;41.00;27.30;100711.00;;;;5012950;27;87716;-70
2023/06/01 10:40:39;;;;;;;1.80;1.33;;;26.80;40.60;27.60;100701.00;;;;5008058;27;87915;-72
2023/06/01 10:43:08;;;;;;;2.22;1.60;;;26.90;40.50;27.90;100700.00;;;;4987797;27;88555;-67
2023/06/01 10:45:34;;;;;;;2.08;1.45;;;27.30;40.40;28.20;100700.00;;;;5001366;27;89398;-69
2023/06/01 10:48:01;;;;;;;7.05;1.05;;;27.50;39.60;28.50;100699.00;;;;5002786;27;89257;-68
2023/06/01 10:50:27;;;;;;;2.63;1.67;;;27.80;39.50;28.60;100699.00;;;;5005488;27;104497;-68
2023/06/01 10:52:55;;;;;;;3.40;2.35;;;28.00;38.80;28.70;100691.00;;;;5005381;27;107983;-69